createdAt,value
2023-05-05T00:02:03.911Z,9.37
2023-05-05T00:07:06.646Z,9.39
2023-05-05T00:12:09.288Z,10.71
2023-05-05T00:17:12.028Z,12.40
2023-05-05T00:22:14.966Z,13.32
2023-05-05T00:27:17.480Z,12.49
2023-05-05T00:32:19.969Z,11.34
2023-05-05T00:37:22.542Z,10.66
2023-05-05T00:42:26.646Z,10.20
2023-05-05T00:47:29.370Z,9.81
2023-05-05T00:52:32.035Z,9.54
2023-05-05T00:57:35.781Z,10.25
2023-05-05T01:02:39.270Z,12.08
2023-05-05T01:07:46.921Z,12.82
2023-05-05T01:13:11.725Z,11.42
2023-05-05T01:18:35.981Z,10.43
2023-05-05T01:24:11.529Z,9.88
2023-05-05T01:29:46.530Z,10.71
2023-05-05T01:35:21.290Z,12.59
2023-05-05T01:40:27.871Z,13.80
2023-05-05T01:45:35.792Z,12.40
2023-05-05T01:50:41.761Z,11.07
2023-05-05T01:55:46.768Z,10.36
2023-05-05T02:00:51.719Z,9.90
2023-05-05T02:05:58.126Z,10.40
2023-05-05T02:11:01.343Z,12.30
2023-05-05T02:16:06.119Z,11.73
2023-05-05T02:21:09.054Z,10.39
2023-05-05T02:26:14.612Z,10.32
2023-05-05T02:31:20.695Z,11.86
2023-05-05T02:36:28.481Z,10.99
2023-05-05T02:41:33.216Z,10.00
2023-05-05T02:46:37.862Z,9.41
2023-05-05T02:51:40.677Z,10.47
2023-05-05T02:56:48.756Z,11.40
2023-05-05T03:01:54.071Z,10.19
2023-05-05T03:06:59.305Z,9.33
2023-05-05T03:12:05.564Z,8.84
2023-05-05T03:17:11.934Z,8.51
2023-05-05T03:22:14.771Z,9.12
2023-05-05T03:27:17.565Z,11.24
2023-05-05T03:32:20.411Z,12.22
2023-05-05T03:37:22.894Z,12.00
2023-05-05T03:42:25.425Z,10.59
2023-05-05T03:47:27.954Z,9.67
2023-05-05T03:52:31.094Z,9.08
2023-05-05T03:57:34.327Z,9.24
2023-05-05T04:02:36.938Z,10.93
2023-05-05T04:07:39.638Z,10.97
2023-05-05T04:12:42.320Z,9.74
2023-05-05T04:17:45.106Z,9.61
2023-05-05T04:22:48.123Z,11.30
2023-05-05T04:27:50.990Z,11.52
2023-05-05T04:32:53.712Z,10.05
2023-05-05T04:37:56.381Z,9.55
2023-05-05T04:42:58.945Z,11.14
2023-05-05T04:48:01.938Z,12.30
2023-05-05T04:53:04.502Z,11.68
2023-05-05T04:58:07.082Z,10.39
2023-05-05T05:03:10.701Z,9.60
2023-05-05T05:08:16.011Z,9.22
2023-05-05T05:13:18.693Z,9.82
2023-05-05T05:18:21.357Z,12.04
2023-05-05T05:23:23.952Z,12.89
2023-05-05T05:28:26.682Z,12.59
2023-05-05T05:33:29.234Z,13.26
2023-05-05T05:38:31.797Z,13.55
2023-05-05T05:43:34.379Z,14.03
2023-05-05T05:48:36.991Z,14.40
2023-05-05T05:53:39.612Z,14.43
2023-05-05T05:58:42.457Z,14.17
2023-05-05T06:03:45.541Z,14.14
2023-05-05T06:08:48.298Z,14.15
2023-05-05T06:13:50.971Z,14.36
2023-05-05T06:18:53.644Z,15.41
2023-05-05T06:23:56.214Z,16.03
2023-05-05T06:28:58.750Z,16.52
2023-05-05T06:34:01.274Z,18.18
2023-05-05T06:39:04.081Z,20.47
2023-05-05T06:44:06.679Z,22.33
2023-05-05T06:49:09.619Z,23.43
2023-05-05T06:54:12.137Z,24.15
2023-05-05T06:59:15.621Z,24.79
2023-05-05T07:04:18.562Z,25.25
2023-05-05T07:09:21.527Z,25.31
2023-05-05T07:14:24.571Z,25.34
2023-05-05T07:19:27.472Z,25.66
2023-05-05T07:24:30.073Z,25.80
2023-05-05T07:29:32.647Z,25.61
2023-05-05T07:34:37.804Z,25.39
2023-05-05T07:39:40.520Z,24.99
2023-05-05T07:44:43.092Z,24.61
2023-05-05T07:49:45.685Z,23.55
2023-05-05T07:54:48.604Z,22.90
2023-05-05T07:59:51.196Z,22.28
2023-05-05T08:04:53.701Z,21.48
2023-05-05T08:09:57.630Z,20.89
2023-05-05T08:15:00.667Z,20.23
2023-05-05T08:20:03.364Z,19.70
2023-05-05T08:25:07.142Z,19.12
2023-05-05T08:30:10.795Z,18.52
2023-05-05T08:35:13.645Z,17.98
2023-05-05T08:40:17.025Z,17.47
2023-05-05T08:45:19.691Z,17.08
2023-05-05T08:50:26.332Z,17.03
2023-05-05T09:20:07.691Z,16.58
2023-05-05T09:25:12.918Z,16.82
2023-05-05T09:30:18.057Z,16.85
2023-05-05T09:35:22.310Z,16.47
2023-05-05T09:40:25.050Z,16.47
2023-05-05T09:45:28.117Z,16.35
2023-05-05T09:50:41.836Z,15.87
2023-05-05T09:56:00.841Z,15.53
2023-05-05T10:01:03.474Z,15.44
2023-05-05T10:06:07.705Z,15.46
2023-05-05T10:11:11.179Z,15.70
2023-05-05T10:16:14.479Z,15.76
2023-05-05T10:21:21.319Z,15.77
2023-05-05T10:26:27.550Z,15.74
2023-05-05T10:31:46.283Z,15.63
2023-05-05T10:36:49.612Z,15.81
2023-05-05T10:41:52.846Z,16.18
2023-05-05T10:46:55.968Z,16.30
2023-05-05T10:52:13.861Z,16.33
2023-05-05T10:57:22.304Z,15.91
2023-05-05T11:02:29.915Z,15.60
2023-05-05T11:07:34.294Z,15.46
2023-05-05T11:12:57.678Z,15.48
2023-05-05T11:18:07.495Z,15.85
2023-05-05T11:23:10.956Z,16.18
2023-05-05T11:28:19.096Z,16.03
2023-05-05T11:33:31.867Z,15.71
2023-05-05T11:38:56.360Z,15.78
2023-05-05T11:44:16.876Z,15.91
2023-05-05T11:49:37.115Z,16.00
2023-05-05T11:54:47.564Z,16.10
2023-05-05T11:59:55.921Z,16.13
2023-05-05T12:04:59.820Z,16.14
2023-05-05T12:10:02.631Z,16.15
2023-05-05T12:15:06.484Z,16.28
2023-05-05T12:20:10.453Z,16.31
2023-05-05T12:25:13.367Z,16.44
2023-05-05T12:30:17.907Z,16.65
2023-05-05T12:35:21.831Z,16.78
2023-05-05T12:40:47.558Z,16.57
2023-05-05T12:46:12.092Z,16.14
2023-05-05T12:51:20.418Z,15.99
2023-05-05T12:56:41.048Z,15.96
2023-05-05T13:01:53.701Z,16.04
2023-05-05T13:07:14.410Z,16.08
2023-05-05T13:12:20.757Z,16.14
2023-05-05T13:17:24.090Z,16.24
2023-05-05T13:22:26.632Z,16.24
2023-05-05T13:27:29.455Z,16.13
2023-05-05T13:32:32.715Z,15.98
2023-05-05T13:37:35.715Z,15.99
2023-05-05T13:42:38.229Z,16.22
2023-05-05T13:47:41.862Z,16.48
2023-05-05T13:52:44.846Z,16.69
2023-05-05T13:57:47.384Z,16.68
2023-05-05T14:02:49.964Z,16.61
2023-05-05T14:07:54.135Z,16.62
2023-05-05T14:12:57.496Z,16.65
2023-05-05T14:18:00.239Z,16.68
2023-05-05T14:23:02.891Z,16.67
2023-05-05T14:28:05.609Z,16.57
2023-05-05T14:33:08.445Z,16.47
2023-05-05T14:38:11.267Z,16.25
2023-05-05T14:43:13.886Z,16.14
2023-05-05T14:48:16.575Z,15.80
2023-05-05T14:53:19.292Z,15.59
2023-05-05T14:58:24.431Z,15.52
2023-05-05T15:03:27.130Z,15.61
2023-05-05T15:08:29.748Z,15.80
2023-05-05T15:13:32.263Z,15.96
2023-05-05T15:18:34.840Z,15.86
2023-05-05T15:23:37.372Z,15.77
2023-05-05T15:28:40.261Z,15.85
2023-05-05T15:33:44.684Z,15.91
2023-05-05T15:38:47.220Z,16.03
2023-05-05T15:43:49.702Z,16.08
2023-05-05T15:48:52.195Z,15.97
2023-05-05T15:53:54.768Z,15.82
2023-05-05T15:58:57.316Z,15.70
2023-05-05T16:04:01.242Z,15.42
2023-05-05T16:09:04.250Z,15.11
2023-05-05T16:14:06.840Z,14.92
2023-05-05T16:19:09.422Z,14.77
2023-05-05T16:24:16.437Z,14.56
2023-05-05T16:29:19.435Z,14.38
2023-05-05T16:34:22.263Z,14.50
2023-05-05T16:39:26.095Z,14.61
2023-05-05T16:44:28.674Z,14.41
2023-05-05T16:49:31.325Z,14.18
2023-05-05T16:54:34.062Z,13.95
2023-05-05T16:59:36.718Z,13.66
2023-05-05T17:04:39.389Z,13.32
2023-05-05T17:09:41.970Z,12.96
2023-05-05T17:14:45.953Z,12.75
2023-05-05T17:19:48.503Z,12.58
2023-05-05T17:24:51.003Z,12.44
2023-05-05T17:29:54.552Z,12.28
2023-05-05T17:34:57.734Z,12.14
2023-05-05T17:40:00.376Z,12.00
2023-05-05T17:45:03.284Z,11.86
2023-05-05T17:50:06.483Z,11.75
2023-05-05T17:55:09.770Z,11.61
2023-05-05T18:00:13.756Z,11.47
2023-05-05T18:05:16.496Z,11.32
2023-05-05T18:10:19.664Z,11.17
2023-05-05T18:15:22.423Z,11.01
2023-05-05T18:20:25.109Z,10.86
2023-05-05T18:25:27.753Z,10.72
2023-05-05T18:30:30.380Z,10.59
2023-05-05T18:35:34.748Z,10.47
2023-05-05T18:40:37.414Z,10.34
2023-05-05T18:45:40.114Z,10.22
2023-05-05T18:50:42.956Z,10.08
2023-05-05T18:55:47.075Z,9.94
2023-05-05T19:00:50.814Z,9.81
2023-05-05T19:05:55.767Z,9.68
2023-05-05T19:10:58.374Z,9.52
2023-05-05T19:16:01.341Z,9.36
2023-05-05T19:21:03.982Z,9.22
2023-05-05T19:26:06.946Z,9.08
2023-05-05T19:31:09.518Z,8.96
2023-05-05T19:36:12.637Z,8.84
2023-05-05T19:41:15.340Z,8.69
2023-05-05T19:46:19.230Z,8.59
2023-05-05T19:51:21.955Z,8.49
2023-05-05T19:56:24.593Z,8.39
2023-05-05T20:01:28.954Z,8.28
2023-05-05T20:06:32.601Z,8.19
2023-05-05T20:11:35.694Z,8.08
2023-05-05T20:16:39.053Z,7.98
2023-05-05T20:21:41.813Z,7.89
2023-05-05T20:26:45.440Z,7.81
2023-05-05T20:31:48.665Z,7.72
2023-05-05T20:36:52.560Z,7.65
2023-05-05T20:41:55.154Z,7.58
2023-05-05T20:46:57.790Z,7.51
2023-05-05T20:52:00.513Z,7.45
2023-05-05T20:57:03.521Z,7.37
2023-05-05T21:02:06.366Z,7.28
2023-05-05T21:07:08.979Z,7.18
2023-05-05T21:12:11.517Z,7.08
2023-05-05T21:17:14.138Z,6.98
2023-05-05T21:22:16.730Z,6.91
2023-05-05T21:27:21.007Z,6.82
2023-05-05T21:32:23.747Z,6.73
2023-05-05T21:37:29.049Z,6.65
2023-05-05T21:42:32.018Z,6.58
2023-05-05T21:47:34.660Z,6.51
2023-05-05T21:52:37.316Z,6.43
2023-05-05T21:57:39.861Z,6.38
2023-05-05T22:02:45.604Z,6.32
2023-05-05T22:07:48.226Z,6.27
2023-05-05T22:12:51.006Z,6.21
2023-05-05T22:17:53.727Z,6.15
2023-05-05T22:22:56.567Z,6.08
2023-05-05T22:28:00.496Z,6.02
2023-05-05T22:33:03.632Z,5.96
2023-05-05T22:38:06.996Z,5.90
2023-05-05T22:43:09.564Z,5.84
2023-05-05T22:48:12.112Z,5.78
2023-05-05T22:53:14.642Z,5.71
2023-05-05T22:58:17.164Z,5.62
2023-05-05T23:03:19.726Z,5.56
2023-05-05T23:08:24.005Z,5.49
2023-05-05T23:13:26.574Z,5.41
2023-05-05T23:18:29.105Z,5.35
2023-05-05T23:23:33.820Z,5.29
2023-05-05T23:28:36.407Z,5.24
2023-05-05T23:33:38.948Z,5.19
2023-05-05T23:38:41.878Z,5.13
2023-05-05T23:43:44.701Z,5.08
2023-05-05T23:48:47.250Z,5.03
2023-05-05T23:53:49.787Z,4.98
2023-05-05T23:58:53.020Z,4.93
